createdAt,value
2022-09-24T00:01:35.646Z,10.13
2022-09-24T00:04:14.086Z,8.57
2022-09-24T00:06:47.693Z,9.20
2022-09-24T00:09:19.345Z,10.15
2022-09-24T00:11:46.034Z,9.45
2022-09-24T00:14:13.528Z,10.43
2022-09-24T00:16:40.868Z,9.48
2022-09-24T00:19:07.808Z,8.85
2022-09-24T00:21:36.261Z,9.25
2022-09-24T00:24:08.124Z,9.35
2022-09-24T00:26:49.781Z,9.50
2022-09-24T00:29:24.241Z,10.45
2022-09-24T00:31:53.006Z,10.35
2022-09-24T00:34:21.662Z,9.85
2022-09-24T00:36:48.430Z,11.35
2022-09-24T00:39:15.995Z,11.05
2022-09-24T00:41:47.079Z,10.27
2022-09-24T00:44:41.597Z,9.88
2022-09-24T00:47:26.042Z,9.75
2022-09-24T00:50:01.521Z,10.68
2022-09-24T00:52:28.282Z,9.50
2022-09-24T00:54:55.379Z,9.85
2022-09-24T00:57:23.232Z,12.23
2022-09-24T00:59:50.029Z,9.80
2022-09-24T01:02:16.677Z,10.50
2022-09-24T01:04:43.839Z,10.25
2022-09-24T01:07:10.450Z,10.65
2022-09-24T01:09:37.048Z,10.75
2022-09-24T01:12:18.770Z,9.85
2022-09-24T01:15:11.833Z,9.23
2022-09-24T01:17:41.102Z,9.95
2022-09-24T01:20:45.339Z,9.80
2022-09-24T01:23:49.006Z,9.80
2022-09-24T01:26:56.500Z,9.80
2022-09-24T01:32:02.029Z,9.68
2022-09-24T01:34:49.164Z,10.18
2022-09-24T01:37:22.129Z,10.13
2022-09-24T01:39:52.191Z,11.95
2022-09-24T01:42:21.313Z,10.25
2022-09-24T01:44:49.188Z,11.27
2022-09-24T01:47:34.100Z,11.02
2022-09-24T01:50:02.934Z,10.77
2022-09-24T01:52:41.744Z,12.00
2022-09-24T01:55:13.707Z,11.50
2022-09-24T01:58:05.059Z,11.60
2022-09-24T02:00:32.354Z,11.23
2022-09-24T02:03:15.974Z,10.73
2022-09-24T02:05:58.306Z,10.70
2022-09-24T02:08:31.470Z,11.63
2022-09-24T02:11:13.739Z,11.45
2022-09-24T02:13:51.086Z,11.50
2022-09-24T02:16:26.358Z,11.88
2022-09-24T02:18:57.618Z,10.73
2022-09-24T02:21:26.149Z,11.10
2022-09-24T02:24:05.645Z,10.50
2022-09-24T02:26:32.239Z,10.52
2022-09-24T02:28:59.165Z,11.15
2022-09-24T02:31:38.093Z,11.05
2022-09-24T02:34:20.586Z,11.00
2022-09-24T02:37:05.199Z,11.10
2022-09-24T02:39:31.899Z,10.65
2022-09-24T02:41:59.718Z,10.20
2022-09-24T02:44:26.771Z,10.40
2022-09-24T02:46:53.413Z,10.65
2022-09-24T02:49:20.044Z,12.02
2022-09-24T02:51:46.844Z,11.80
2022-09-24T02:54:13.689Z,12.32
2022-09-24T02:56:40.796Z,10.15
2022-09-24T02:59:07.841Z,11.35
2022-09-24T03:01:35.201Z,9.98
2022-09-24T03:04:02.730Z,11.30
2022-09-24T03:06:30.352Z,11.73
2022-09-24T03:08:57.449Z,12.55
2022-09-24T03:11:24.926Z,11.35
2022-09-24T03:13:51.956Z,11.75
2022-09-24T03:16:19.193Z,11.60
2022-09-24T03:18:47.717Z,9.95
2022-09-24T03:21:18.268Z,11.93
2022-09-24T03:23:45.492Z,12.40
2022-09-24T03:26:12.985Z,11.95
2022-09-24T03:28:39.952Z,12.80
2022-09-24T03:31:08.753Z,12.48
2022-09-24T03:33:41.694Z,14.13
2022-09-24T03:36:15.989Z,12.18
2022-09-24T03:38:44.610Z,12.18
2022-09-24T03:41:12.889Z,12.60
2022-09-24T03:43:40.117Z,11.70
2022-09-24T03:46:08.225Z,11.38
2022-09-24T03:48:37.479Z,12.02
2022-09-24T03:51:18.466Z,10.35
2022-09-24T03:53:45.866Z,10.48
2022-09-24T03:56:12.947Z,10.05
2022-09-24T03:58:40.218Z,9.55
2022-09-24T04:01:09.228Z,9.65
2022-09-24T04:03:36.332Z,10.38
2022-09-24T04:06:04.001Z,9.65
2022-09-24T04:08:31.534Z,9.70
2022-09-24T04:10:58.632Z,9.10
2022-09-24T04:13:25.727Z,10.35
2022-09-24T04:15:53.661Z,10.00
2022-09-24T04:18:21.453Z,9.68
2022-09-24T04:20:48.272Z,9.73
2022-09-24T04:23:15.389Z,9.70
2022-09-24T04:25:42.178Z,9.85
2022-09-24T04:28:10.427Z,10.57
2022-09-24T04:30:38.217Z,11.10
2022-09-24T04:33:06.362Z,9.57
2022-09-24T04:35:36.135Z,9.70
2022-09-24T04:38:04.853Z,10.63
2022-09-24T04:40:32.020Z,10.60
2022-09-24T04:42:58.974Z,9.90
2022-09-24T04:45:26.717Z,9.85
2022-09-24T04:47:57.829Z,10.90
2022-09-24T04:50:29.011Z,9.40
2022-09-24T04:52:56.555Z,10.80
2022-09-24T04:55:23.879Z,9.48
2022-09-24T04:57:50.936Z,10.10
2022-09-24T05:00:20.911Z,11.50
2022-09-24T05:02:48.532Z,11.00
2022-09-24T05:05:15.301Z,9.73
2022-09-24T05:07:42.610Z,10.45
2022-09-24T05:10:09.433Z,9.40
2022-09-24T05:12:36.368Z,10.10
2022-09-24T05:15:04.163Z,9.73
2022-09-24T05:17:30.909Z,9.73
2022-09-24T05:20:01.373Z,10.48
2022-09-24T05:22:28.044Z,10.82
2022-09-24T05:24:54.608Z,9.68
2022-09-24T05:27:23.093Z,11.00
2022-09-24T05:29:50.350Z,12.23
2022-09-24T05:32:20.015Z,11.85
2022-09-24T05:34:47.228Z,12.48
2022-09-24T05:37:15.033Z,12.13
2022-09-24T05:39:42.327Z,12.10
2022-09-24T05:42:16.019Z,12.57
2022-09-24T05:44:48.623Z,12.65
2022-09-24T05:47:18.601Z,11.60
2022-09-24T05:49:45.178Z,12.07
2022-09-24T05:52:11.977Z,12.15
2022-09-24T05:54:38.612Z,13.27
2022-09-24T05:57:05.244Z,13.68
2022-09-24T05:59:32.234Z,12.75
2022-09-24T06:01:58.867Z,12.60
2022-09-24T06:04:25.497Z,12.02
2022-09-24T06:06:52.235Z,14.32
2022-09-24T06:09:18.855Z,14.10
2022-09-24T06:11:45.822Z,13.18
2022-09-24T06:14:13.006Z,13.88
2022-09-24T06:16:39.609Z,13.18
2022-09-24T06:19:06.345Z,15.27
2022-09-24T06:21:32.960Z,15.38
2022-09-24T06:23:59.544Z,15.50
2022-09-24T06:26:26.393Z,13.43
2022-09-24T06:28:53.137Z,13.77
2022-09-24T06:31:20.040Z,13.45
2022-09-24T06:33:46.802Z,14.32
2022-09-24T06:36:13.414Z,13.98
2022-09-24T06:38:41.092Z,13.85
2022-09-24T06:41:08.093Z,13.77
2022-09-24T06:43:34.873Z,12.48
2022-09-24T06:46:02.020Z,13.57
2022-09-24T06:48:31.030Z,11.90
2022-09-24T06:50:57.810Z,11.80
2022-09-24T06:53:24.851Z,12.60
2022-09-24T06:55:51.830Z,13.13
2022-09-24T06:58:20.921Z,13.35
2022-09-24T07:00:58.656Z,12.15
2022-09-24T07:03:27.660Z,11.45
2022-09-24T07:05:54.836Z,12.98
2022-09-24T07:08:22.325Z,10.10
2022-09-24T07:10:49.666Z,11.27
2022-09-24T07:13:16.588Z,11.18
2022-09-24T07:15:44.769Z,10.82
2022-09-24T07:18:12.934Z,10.07
2022-09-24T07:20:40.197Z,10.07
2022-09-24T07:23:10.199Z,10.77
2022-09-24T07:25:38.421Z,9.98
2022-09-24T07:28:09.451Z,10.27
2022-09-24T07:30:36.814Z,9.27
2022-09-24T07:33:04.832Z,9.95
2022-09-24T07:35:31.668Z,10.38
2022-09-24T07:37:59.414Z,9.70
2022-09-24T07:40:27.313Z,10.25
2022-09-24T07:42:55.172Z,9.65
2022-09-24T07:45:23.597Z,10.55
2022-09-24T07:48:01.790Z,10.35
2022-09-24T07:50:31.530Z,10.32
2022-09-24T07:52:58.412Z,10.38
2022-09-24T07:55:25.917Z,10.57
2022-09-24T07:57:55.157Z,10.55
2022-09-24T08:00:24.764Z,10.98
2022-09-24T08:02:53.090Z,9.57
2022-09-24T08:05:19.801Z,10.40
2022-09-24T08:07:57.617Z,11.05
2022-09-24T08:10:26.974Z,11.60
2022-09-24T08:12:54.062Z,10.43
2022-09-24T08:15:22.550Z,10.95
2022-09-24T08:17:49.462Z,11.90
2022-09-24T08:20:16.266Z,10.93
2022-09-24T08:22:42.870Z,12.27
2022-09-24T08:25:09.742Z,11.77
2022-09-24T08:27:37.384Z,11.57
2022-09-24T08:30:08.077Z,12.23
2022-09-24T08:32:34.745Z,12.15
2022-09-24T08:35:01.397Z,11.88
2022-09-24T08:37:29.223Z,13.02
2022-09-24T08:39:55.929Z,14.25
2022-09-24T08:42:38.491Z,12.70
2022-09-24T08:45:25.475Z,12.38
2022-09-24T08:48:14.637Z,12.63
2022-09-24T08:50:53.327Z,13.27
2022-09-24T08:53:48.613Z,13.68
2022-09-24T08:56:23.672Z,12.73
2022-09-24T08:59:24.054Z,13.45
2022-09-24T09:02:05.445Z,13.63
2022-09-24T09:05:10.485Z,13.82
2022-09-24T09:08:27.387Z,14.80
2022-09-24T09:11:03.048Z,13.20
2022-09-24T09:13:46.236Z,13.65
2022-09-24T09:16:53.568Z,12.98
2022-09-24T09:19:26.950Z,12.27
2022-09-24T09:22:05.174Z,13.25
2022-09-24T09:24:55.449Z,12.82
2022-09-24T09:27:26.176Z,12.35
2022-09-24T09:30:02.846Z,12.02
2022-09-24T09:33:08.728Z,13.38
2022-09-24T09:36:09.190Z,12.57
2022-09-24T09:38:44.828Z,11.80
2022-09-24T09:41:26.685Z,12.68
2022-09-24T09:44:00.580Z,12.73
2022-09-24T09:46:37.932Z,12.50
2022-09-24T09:49:08.130Z,12.68
2022-09-24T09:51:41.018Z,12.20
2022-09-24T09:54:08.296Z,13.07
2022-09-24T09:56:50.494Z,13.60
2022-09-24T09:59:25.695Z,12.38
2022-09-24T10:01:56.450Z,12.07
2022-09-24T10:04:35.233Z,13.45
2022-09-24T10:07:15.804Z,12.43
2022-09-24T10:09:45.006Z,13.18
2022-09-24T10:12:24.223Z,12.20
2022-09-24T10:15:03.761Z,12.18
2022-09-24T10:17:38.914Z,12.77
2022-09-24T10:20:15.800Z,13.45
2022-09-24T10:22:52.633Z,15.30
2022-09-24T10:25:26.295Z,17.13
2022-09-24T10:28:18.527Z,17.15
2022-09-24T10:30:53.700Z,16.25
2022-09-24T10:35:47.881Z,12.48
2022-09-24T10:38:21.442Z,13.13
2022-09-24T10:40:48.269Z,13.02
2022-09-24T10:43:21.785Z,12.48
2022-09-24T10:46:08.127Z,12.70
2022-09-24T10:49:22.518Z,13.02
2022-09-24T10:51:58.796Z,13.75
2022-09-24T10:54:43.938Z,12.85
2022-09-24T10:57:31.505Z,14.52
2022-09-24T11:00:14.696Z,14.10
2022-09-24T11:03:32.302Z,16.65
2022-09-24T11:06:02.959Z,15.23
2022-09-24T11:09:06.204Z,16.83
2022-09-24T11:12:13.079Z,16.80
2022-09-24T11:15:07.509Z,16.90
2022-09-24T11:17:55.018Z,15.48
2022-09-24T11:20:39.413Z,16.30
2022-09-24T11:23:24.685Z,16.60
2022-09-24T11:26:26.710Z,16.75
2022-09-24T11:29:37.327Z,15.02
2022-09-24T11:32:36.794Z,15.05
2022-09-24T11:35:42.723Z,15.52
2022-09-24T11:38:17.939Z,15.35
2022-09-24T11:41:05.708Z,14.60
2022-09-24T11:44:11.278Z,14.38
2022-09-24T11:47:14.204Z,14.50
2022-09-24T11:49:58.893Z,14.70
2022-09-24T11:52:56.671Z,12.38
2022-09-24T11:55:35.207Z,12.60
2022-09-24T11:58:23.981Z,13.38
2022-09-24T12:00:54.813Z,13.52
2022-09-24T12:03:39.488Z,13.02
2022-09-24T12:06:13.738Z,12.93
2022-09-24T12:09:33.289Z,13.93
2022-09-24T12:12:10.871Z,13.10
2022-09-24T12:14:43.614Z,11.88
2022-09-24T12:17:21.166Z,13.30
2022-09-24T12:20:23.719Z,13.90
2022-09-24T12:22:59.979Z,13.07
2022-09-24T12:25:39.264Z,13.05
2022-09-24T12:28:09.949Z,13.52
2022-09-24T12:31:02.660Z,14.07
2022-09-24T12:33:44.170Z,13.77
2022-09-24T12:36:56.032Z,13.10
2022-09-24T12:39:42.737Z,13.38
2022-09-24T12:42:11.170Z,13.63
2022-09-24T12:44:48.949Z,13.18
2022-09-24T12:47:27.109Z,14.13
2022-09-24T12:50:01.029Z,13.82
2022-09-24T12:52:35.064Z,12.85
2022-09-24T12:55:04.267Z,14.10
2022-09-24T12:57:41.526Z,13.90
2022-09-24T13:00:42.908Z,14.50
2022-09-24T13:03:41.950Z,14.00
2022-09-24T13:06:35.891Z,14.25
2022-09-24T13:09:25.834Z,13.85
2022-09-24T13:12:33.138Z,15.38
2022-09-24T13:15:07.894Z,14.65
2022-09-24T13:17:38.527Z,12.20
2022-09-24T13:20:22.682Z,13.13
2022-09-24T13:23:20.862Z,13.88
2022-09-24T13:26:09.225Z,12.98
2022-09-24T13:29:00.665Z,10.50
2022-09-24T13:31:27.318Z,7.43
2022-09-24T13:34:02.632Z,8.02
2022-09-24T13:36:32.964Z,8.48
2022-09-24T13:39:35.442Z,8.57
2022-09-24T13:42:46.090Z,8.07
2022-09-24T13:45:21.934Z,7.03
2022-09-24T13:47:52.988Z,8.45
2022-09-24T13:50:27.071Z,7.57
2022-09-24T13:53:08.261Z,8.20
2022-09-24T13:55:42.977Z,7.28
2022-09-24T13:58:36.636Z,7.80
2022-09-24T14:01:13.165Z,7.40
2022-09-24T14:03:41.135Z,7.47
2022-09-24T14:06:17.031Z,7.38
2022-09-24T14:08:46.773Z,7.32
2022-09-24T14:11:25.223Z,7.80
2022-09-24T14:13:52.462Z,7.90
2022-09-24T14:16:24.469Z,8.25
2022-09-24T14:19:06.024Z,8.68
2022-09-24T14:21:58.500Z,7.80
2022-09-24T14:24:31.016Z,7.90
2022-09-24T14:27:07.806Z,7.20
2022-09-24T14:30:00.955Z,8.13
2022-09-24T14:32:42.483Z,8.20
2022-09-24T14:35:29.110Z,8.52
2022-09-24T14:38:15.250Z,8.23
2022-09-24T14:40:50.934Z,8.98
2022-09-24T14:43:39.484Z,8.63
2022-09-24T14:46:15.735Z,9.30
2022-09-24T14:48:44.032Z,9.98
2022-09-24T14:51:29.725Z,9.40
2022-09-24T14:54:37.289Z,9.57
2022-09-24T14:57:18.741Z,9.25
2022-09-24T14:59:46.765Z,9.20
2022-09-24T15:02:30.015Z,8.75
2022-09-24T15:05:05.932Z,10.40
2022-09-24T15:07:34.687Z,10.65
2022-09-24T15:10:04.174Z,9.82
2022-09-24T15:12:36.930Z,11.88
2022-09-24T15:15:19.468Z,11.68
2022-09-24T15:17:47.550Z,10.85
2022-09-24T15:20:14.676Z,12.57
2022-09-24T15:22:41.299Z,13.25
2022-09-24T15:25:08.647Z,13.70
2022-09-24T15:27:42.071Z,15.13
2022-09-24T15:30:17.778Z,13.63
2022-09-24T15:35:14.991Z,12.48
2022-09-24T15:37:42.978Z,12.73
2022-09-24T15:40:24.699Z,13.05
2022-09-24T15:42:52.375Z,12.05
2022-09-24T15:45:22.587Z,12.82
2022-09-24T15:47:51.012Z,11.98
2022-09-24T15:50:22.457Z,12.68
2022-09-24T15:52:58.925Z,11.93
2022-09-24T15:55:25.720Z,11.40
2022-09-24T15:57:53.082Z,12.95
2022-09-24T16:00:23.038Z,12.00
2022-09-24T16:02:53.874Z,11.75
2022-09-24T16:05:21.072Z,12.73
2022-09-24T16:07:47.692Z,12.55
2022-09-24T16:10:15.910Z,13.32
2022-09-24T16:12:43.262Z,11.82
2022-09-24T16:15:15.646Z,12.60
2022-09-24T16:17:42.929Z,12.48
2022-09-24T16:20:10.359Z,12.05
2022-09-24T16:22:37.098Z,12.02
2022-09-24T16:25:04.244Z,13.25
2022-09-24T16:27:31.377Z,13.68
2022-09-24T16:29:58.137Z,13.73
2022-09-24T16:32:25.046Z,12.93
2022-09-24T16:34:51.868Z,13.15
2022-09-24T16:37:18.723Z,12.60
2022-09-24T16:39:45.912Z,13.82
2022-09-24T16:42:12.579Z,12.88
2022-09-24T16:44:39.150Z,13.18
2022-09-24T16:47:05.766Z,13.18
2022-09-24T16:49:32.390Z,12.45
2022-09-24T16:51:59.547Z,13.35
2022-09-24T16:54:29.534Z,12.68
2022-09-24T16:56:57.461Z,12.73
2022-09-24T16:59:24.197Z,12.68
2022-09-24T17:01:50.885Z,13.48
2022-09-24T17:04:17.927Z,13.43
2022-09-24T17:06:45.058Z,12.20
2022-09-24T17:09:30.195Z,13.55
2022-09-24T17:11:57.161Z,12.27
2022-09-24T17:14:24.382Z,12.75
2022-09-24T17:16:51.064Z,11.90
2022-09-24T17:19:17.653Z,12.18
2022-09-24T17:21:46.022Z,13.52
2022-09-24T17:24:16.457Z,12.13
2022-09-24T17:26:45.965Z,13.65
2022-09-24T17:29:13.032Z,13.88
2022-09-24T17:31:40.101Z,14.10
2022-09-24T17:34:10.226Z,13.90
2022-09-24T17:36:37.350Z,14.32
2022-09-24T17:39:05.702Z,15.27
2022-09-24T17:41:33.577Z,14.10
2022-09-24T17:44:01.012Z,12.40
2022-09-24T17:46:31.223Z,11.88
2022-09-24T17:49:00.331Z,13.48
2022-09-24T17:51:33.868Z,13.43
2022-09-24T17:54:04.085Z,12.85
2022-09-24T17:56:32.670Z,13.40
2022-09-24T17:59:00.140Z,14.02
2022-09-24T18:01:33.666Z,13.38
2022-09-24T18:04:00.547Z,13.20
2022-09-24T18:06:32.959Z,14.15
2022-09-24T18:09:01.235Z,14.10
2022-09-24T18:11:31.865Z,14.30
2022-09-24T18:14:00.793Z,13.93
2022-09-24T18:16:31.217Z,13.98
2022-09-24T18:18:59.953Z,13.25
2022-09-24T18:21:27.824Z,15.07
2022-09-24T18:23:57.107Z,14.23
2022-09-24T18:26:28.059Z,14.43
2022-09-24T18:28:58.341Z,13.23
2022-09-24T18:31:28.387Z,14.32
2022-09-24T18:33:58.345Z,13.55
2022-09-24T18:36:28.326Z,13.25
2022-09-24T18:38:55.894Z,13.73
2022-09-24T18:41:28.227Z,14.27
2022-09-24T18:43:56.189Z,14.32
2022-09-24T18:46:23.574Z,14.25
2022-09-24T18:48:53.323Z,14.45
2022-09-24T18:51:26.085Z,14.68
2022-09-24T18:54:03.042Z,15.65
2022-09-24T18:56:31.434Z,15.93
2022-09-24T18:59:19.906Z,13.63
2022-09-24T19:01:48.555Z,15.98
2022-09-24T19:04:16.593Z,15.30
2022-09-24T19:06:45.725Z,17.00
2022-09-24T19:09:14.701Z,15.00
2022-09-24T19:11:41.864Z,15.15
2022-09-24T19:14:10.532Z,15.43
2022-09-24T19:16:37.143Z,14.77
2022-09-24T19:19:03.878Z,15.82
2022-09-24T19:21:30.531Z,14.73
2022-09-24T19:23:58.800Z,15.90
2022-09-24T19:26:33.667Z,14.57
2022-09-24T19:29:00.690Z,15.53
2022-09-24T19:31:36.346Z,15.23
2022-09-24T19:36:38.716Z,14.02
2022-09-24T19:39:14.321Z,14.30
2022-09-24T19:41:41.043Z,14.77
2022-09-24T19:44:09.359Z,13.95
2022-09-24T19:46:38.293Z,15.40
2022-09-24T19:49:05.789Z,15.80
2022-09-24T19:51:34.202Z,15.80
2022-09-24T19:54:04.338Z,15.55
2022-09-24T19:56:31.777Z,15.98
2022-09-24T19:59:01.271Z,15.02
2022-09-24T20:01:31.763Z,15.52
2022-09-24T20:04:02.258Z,16.30
2022-09-24T20:06:31.459Z,19.27
2022-09-24T20:08:59.207Z,18.95
2022-09-24T20:11:26.451Z,18.92
2022-09-24T20:13:55.986Z,18.05
2022-09-24T20:16:26.242Z,18.80
2022-09-24T20:18:57.587Z,17.40
2022-09-24T20:21:27.746Z,19.50
2022-09-24T20:23:58.637Z,19.10
2022-09-24T20:26:44.458Z,18.60
2022-09-24T20:29:13.006Z,18.15
2022-09-24T20:31:51.742Z,19.08
2022-09-24T20:34:33.869Z,17.58
2022-09-24T20:37:05.506Z,14.43
2022-09-24T20:39:33.123Z,14.25
2022-09-24T20:42:02.274Z,13.77
2022-09-24T20:44:30.434Z,12.48
2022-09-24T20:46:58.047Z,13.07
2022-09-24T20:49:25.013Z,12.38
2022-09-24T20:51:57.039Z,11.65
2022-09-24T20:54:28.473Z,10.43
2022-09-24T20:56:55.938Z,10.93
2022-09-24T20:59:23.470Z,9.75
2022-09-24T21:01:50.635Z,10.23
2022-09-24T21:04:20.717Z,11.00
2022-09-24T21:06:48.602Z,10.20
2022-09-24T21:09:16.855Z,10.90
2022-09-24T21:11:43.941Z,9.90
2022-09-24T21:14:11.730Z,11.07
2022-09-24T21:16:38.627Z,11.55
2022-09-24T21:19:07.868Z,10.45
2022-09-24T21:21:38.952Z,10.75
2022-09-24T21:24:09.322Z,10.93
2022-09-24T21:26:38.882Z,11.75
2022-09-24T21:29:09.972Z,11.15
2022-09-24T21:31:39.207Z,11.85
2022-09-24T21:34:07.316Z,12.00
2022-09-24T21:36:43.920Z,11.82
2022-09-24T21:39:23.340Z,11.50
2022-09-24T21:41:54.904Z,13.07
2022-09-24T21:44:21.849Z,12.05
2022-09-24T21:46:52.413Z,13.32
2022-09-24T21:49:20.429Z,13.60
2022-09-24T21:51:47.380Z,12.57
2022-09-24T21:54:17.780Z,13.05
2022-09-24T21:56:45.960Z,13.80
2022-09-24T21:59:32.035Z,12.65
2022-09-24T22:01:58.905Z,13.88
2022-09-24T22:04:25.599Z,15.10
2022-09-24T22:06:52.478Z,14.38
2022-09-24T22:09:20.131Z,14.20
2022-09-24T22:11:46.866Z,14.63
2022-09-24T22:14:14.201Z,15.07
2022-09-24T22:16:41.061Z,17.40
2022-09-24T22:19:09.112Z,15.40
2022-09-24T22:21:36.365Z,17.55
2022-09-24T22:24:03.167Z,17.70
2022-09-24T22:26:29.876Z,15.65
2022-09-24T22:28:57.460Z,16.27
2022-09-24T22:31:24.725Z,15.60
2022-09-24T22:34:10.646Z,15.68
2022-09-24T22:36:37.932Z,15.60
2022-09-24T22:39:06.433Z,16.33
2022-09-24T22:41:38.027Z,16.05
2022-09-24T22:44:05.403Z,16.00
2022-09-24T22:46:34.029Z,16.20
2022-09-24T22:49:01.375Z,15.25
2022-09-24T22:51:28.197Z,15.30
2022-09-24T22:53:56.162Z,15.25
2022-09-24T22:56:27.122Z,15.13
2022-09-24T22:58:57.223Z,14.93
2022-09-24T23:01:33.742Z,14.25
2022-09-24T23:04:02.027Z,14.18
2022-09-24T23:06:30.282Z,14.50
2022-09-24T23:08:57.410Z,14.82
2022-09-24T23:11:33.329Z,14.57
2022-09-24T23:14:14.673Z,14.88
2022-09-24T23:16:45.530Z,13.80
2022-09-24T23:19:20.040Z,13.43
2022-09-24T23:21:47.167Z,13.38
2022-09-24T23:24:19.729Z,13.57
2022-09-24T23:26:46.860Z,13.82
2022-09-24T23:29:14.255Z,12.77
2022-09-24T23:31:41.357Z,11.73
2022-09-24T23:34:08.662Z,11.35
2022-09-24T23:36:35.657Z,12.40
2022-09-24T23:39:03.895Z,11.68
2022-09-24T23:41:31.608Z,10.82
2022-09-24T23:43:59.426Z,10.13
2022-09-24T23:46:27.244Z,11.45
2022-09-24T23:48:54.409Z,10.85
2022-09-24T23:51:21.036Z,10.48
2022-09-24T23:53:47.837Z,10.00
2022-09-24T23:56:15.095Z,10.38
2022-09-24T23:58:42.334Z,9.50
